Etusivu
METAR-TAF:

METAR-TAF

Lentoasemat :

Habarovskin lentoasema

Habarovsk, Venäjä

Leveyspiiri: 48-31N, Pituuspiiri: 135-10E, korkeus merenpinnasta: 72 m

Tämänhetkinen sää

Tämä raportti tehtiin 21 minuuttia sitten, kello 07.30 UTC
Tuuli 14 kn lännestä
Lämpötila -7°C
Kosteus 34%
Ilmanpaine 1026 hPa
Näkyvyys 10 km tai enemmän
Muutamia pilviä 4200 ft:n korkeudessa

METAR: UHHH 200730Z 27007MPS 9999 FEW042 M07/M20 Q1026 R23L/090060 NOSIG RMK QFE763/1017

Aika: 17:51 (07:51 UTC)

Sääennuste

Tämä raportti tehtiin 3 tuntia ja 6 minuuttia sitten, kello 04.45 UTC
Ennuste voimassa 20. päivästä klo 06 UTC - 21. päivään klo 12 UTC
Tuuli 12 kn lännestä/lounaasta
Näkyvyys 10 km tai enemmän
Ajoittain
20. päivästä klo 06 UTC - 20. päivään klo 15 UTC
Tuuli 14 kn lännestä puuskistuen 23 kn:hen
Hajanaisia pilviä 2000 ft:n korkeudessa

TAF: UHHH 200445Z 2006/2112 25006MPS 9999 NSC TEMPO 2006/2015 27007G12MPS SCT020

Säähavainnot ja -ennusteet yli 4000 lentoasemalta (METAR- ja TAF-raportit).

Käytössä olevat sääasemat on merkitty karttaan keltaisilla ja punaisilla pisteillä.

Aseta hiiri pisteen päälle nähdäksesi sääaseman nimen.

Klikkaa sitten nähdäksesi säähavainnot ja -ennusteet.

Kartan vaihtaminen: klikkaa mustalla rastilla varustettuja vihreitä pisteitä, niin voit zoomata sisään; viivalla varustettua vihreää pistettä, niin voit zoomata ulos tai vihreitä nuolia, niin pääset viereisille kartoille.


METAR-TAF: